Stations météo

réclame
Mon MeteoGroup
Stabroek, Belgique (6438): Température de l'air & dewpoint: 11.11.2019 22:00:00 - 17.11.2019 22:00:00 (CET)Stabroek, Belgique (6438): Vitesse du vent & gusts: 11.11.2019 22:00:00 - 17.11.2019 22:00:00 (CET)Stabroek, Belgique (6438): Direction du vent: 11.11.2019 22:00:00 - 17.11.2019 22:00:00 (CET)Stabroek, Belgique (6438): reduced air pressure: 11.11.2019 22:00:00 - 17.11.2019 22:00:00 (CET)Stabroek, Belgique (6438): Ensoleillement: 11.11.2019 22:00:00 - 17.11.2019 22:00:00 (CET)Stabroek, Belgique (6438): Quantités de précipitations: 11.11.2019 22:00:00 - 17.11.2019 22:00:00 (CET)
Date & Time tt [°C] td [°C] ff [km/h] ff [knt] fx [km/h] fx [knt] dd ppp [hPa] sd [min] rr [mm]
17.11.2019 22:00:00 - - - - - - - - - -
17.11.2019 21:00:00 4,6 4,1 9 5 13 7 NNW 1010,7 0 0,0
17.11.2019 20:00:00 4,4 4,1 7 4 11 6 NNW 1011,2 0 0,0
17.11.2019 19:00:00 4,8 4,2 7 4 11 6 NNW 1011,1 0 0,0
17.11.2019 18:00:00 5,7 4,5 7 4 11 6 NNW 1011,4 0 0,0
17.11.2019 17:00:00 6,4 4,7 6 3 12 7 NNW 1011,4 0 0,0
17.11.2019 16:00:00 7,2 5,0 5 3 14 8 NNE 1011,7 0 0,0
17.11.2019 15:00:00 7,7 4,7 10 5 15 8 NNE 1011,8 31 0,0
17.11.2019 14:00:00 7,9 4,7 8 4 13 7 NNE 1011,5 60 0,0
17.11.2019 13:00:00 7,9 5,2 7 4 11 6 N 1011,6 60 0,0
17.11.2019 12:00:00 6,1 4,5 4 2 7 4 NE 1011,9 60 0,0
17.11.2019 11:00:00 4,3 3,7 4 2 5 3 E 1012,5 60 0,0
17.11.2019 10:00:00 2,3 2,3 4 2 8 5 E 1012,4 59 0,0
17.11.2019 09:00:00 0,2 0,2 4 2 7 4 ESE 1012,7 0 0,0
17.11.2019 08:00:00 0,2 0,2 4 2 8 4 E 1012,3 0 0,0
17.11.2019 07:00:00 0,4 0,4 4 2 7 4 SE 1012,0 0 0,0
17.11.2019 06:00:00 0,6 0,6 4 2 7 4 ESE 1011,4 0 0,0
17.11.2019 05:00:00 2,5 2,5 4 2 6 4 NE 1011,4 0 0,0
17.11.2019 04:00:00 2,8 2,8 0 0 11 6 N 1011,7 0 0,0
17.11.2019 03:00:00 3,5 3,2 6 3 9 5 E 1011,5 0 0,0
17.11.2019 02:00:00 4,9 4,0 6 3 10 5 SE 1011,4 0 0,0
17.11.2019 01:00:00 5,4 4,2 7 4 9 5 SE 1011,5 0 0,0
17.11.2019 00:00:00 6,0 4,2 6 3 11 6 SE 1011,1 0 0,0
16.11.2019 23:00:00 6,1 4,2 6 4 13 7 S 1011,1 0 0,0
16.11.2019 22:00:00 6,5 3,8 9 5 24 13 S 1011,1 0 0,0
16.11.2019 21:00:00 6,4 4,0 10 5 21 12 S 1011,1 0 0,0
16.11.2019 20:00:00 6,4 3,9 15 8 24 13 SSW 1010,8 0 0,0
16.11.2019 19:00:00 6,0 4,1 7 4 9 5 SSE 1010,1 0 0,0
16.11.2019 18:00:00 5,9 4,0 5 3 16 9 S 1009,6 0 0,0
16.11.2019 17:00:00 6,2 3,5 11 6 18 10 S 1009,2 0 0,0
16.11.2019 16:00:00 6,9 3,7 10 5 19 10 S 1008,3 0 0,0
16.11.2019 15:00:00 7,4 3,9 14 8 21 11 SSE 1008,0 0 0,0
16.11.2019 14:00:00 7,6 4,1 15 8 21 11 S 1008,1 49 0,0
16.11.2019 13:00:00 7,1 3,6 11 6 16 9 SSE 1008,1 25 0,0
16.11.2019 12:00:00 5,6 3,8 9 5 14 7 SE 1008,3 43 0,0
16.11.2019 11:00:00 3,7 2,8 8 4 10 5 ESE 1008,2 59 0,0
16.11.2019 10:00:00 1,7 1,6 4 2 12 7 NE 1008,2 47 0,0
16.11.2019 09:00:00 0,8 0,8 4 2 6 4 ESE 1007,6 22 0,0
16.11.2019 08:00:00 1,0 1,0 5 3 7 4 E 1007,2 0 0,0
16.11.2019 07:00:00 0,1 0,1 4 2 6 4 SSE 1006,4 0 0,0
16.11.2019 06:00:00 1,0 0,8 4 2 9 5 SSE 1006,1 0 0,0
16.11.2019 05:00:00 1,7 1,4 5 3 8 5 E 1005,9 0 0,0
16.11.2019 04:00:00 2,0 1,6 6 3 9 5 E 1005,8 0 0,0
16.11.2019 03:00:00 2,8 2,0 4 2 8 5 E 1005,9 0 0,0
16.11.2019 02:00:00 3,2 2,3 4 2 11 6 E 1005,7 0 0,0
16.11.2019 01:00:00 3,4 2,6 7 4 10 5 E 1005,3 0 0,0
16.11.2019 00:00:00 2,7 2,0 4 2 7 4 ENE 1004,9 0 0,0
15.11.2019 23:00:00 3,5 2,0 4 2 8 5 ENE 1004,5 0 0,0
15.11.2019 22:00:00 4,9 2,0 8 4 30 16 ESE 1003,8 0 0,0
15.11.2019 21:00:00 5,9 3,1 13 7 24 13 SE 1003,5 0 0,0
15.11.2019 20:00:00 5,6 3,6 9 5 19 10 SE 1002,9 0 0,0
15.11.2019 19:00:00 5,4 3,7 7 4 18 10 SE 1002,0 0 0,0
15.11.2019 18:00:00 5,0 3,5 8 5 16 8 E 1001,5 0 0,0
15.11.2019 17:00:00 5,1 3,5 10 5 21 11 E 1001,3 0 0,0
15.11.2019 16:00:00 5,1 3,5 8 5 18 10 E 1000,3 5 0,0
15.11.2019 15:00:00 4,9 3,1 10 5 26 14 ENE 1000,5 0 0,0
15.11.2019 14:00:00 4,9 3,0 13 7 34 18 ENE 1000,3 0 0,0
15.11.2019 13:00:00 4,8 2,9 18 10 31 17 NE 1000,0 0 0,0
15.11.2019 12:00:00 4,2 2,7 16 8 31 17 NE 1000,6 0 0,0
15.11.2019 11:00:00 3,6 2,5 10 5 26 14 NE 1001,1 0 0,0
15.11.2019 10:00:00 3,4 2,3 9 5 27 15 NE 1001,6 0 0,0
15.11.2019 09:00:00 3,2 2,4 14 7 31 17 NE 1000,9 0 0,0
15.11.2019 08:00:00 3,0 2,4 16 8 31 17 NNE 999,7 0 0,0
15.11.2019 07:00:00 2,8 2,5 11 6 22 12 NE 1000,4 0 0,0
15.11.2019 06:00:00 2,8 2,5 10 5 19 10 N 1000,4 0 0,0
15.11.2019 05:00:00 3,4 3,1 10 5 18 10 NNE 1001,3 0 0,0
15.11.2019 04:00:00 4,2 4,0 6 4 18 10 N 1001,7 0 0,0
15.11.2019 03:00:00 4,3 4,0 10 5 17 9 N 1002,1 0 0,0
15.11.2019 02:00:00 4,5 4,0 9 5 14 8 N 1002,8 0 0,0
15.11.2019 01:00:00 4,2 3,7 7 4 9 5 N 1003,1 0 0,0
15.11.2019 00:00:00 4,8 4,1 5 3 6 3 NNW 1003,5 0 0,0
14.11.2019 23:00:00 4,8 4,4 4 2 11 6 NNE 1003,4 0 0,0
14.11.2019 22:00:00 5,3 4,3 9 5 16 8 NNE 1003,0 0 0,0
14.11.2019 21:00:00 5,2 4,5 4 2 7 4 ENE 1004,0 0 0,0
14.11.2019 20:00:00 4,9 4,2 5 3 10 5 ENE 1003,6 0 0,0
14.11.2019 19:00:00 4,9 4,1 7 4 10 5 ENE 1003,0 0 0,0
14.11.2019 18:00:00 5,2 3,8 4 2 14 8 E 1003,0 0 0,0
14.11.2019 17:00:00 6,3 4,0 10 5 18 10 ESE 1002,1 0 0,0
14.11.2019 16:00:00 6,8 4,1 10 6 21 12 SE 1001,7 10 0,0
14.11.2019 15:00:00 7,3 4,3 12 7 22 12 SE 1001,0 11 0,0
14.11.2019 14:00:00 7,0 4,4 16 9 27 15 SSE 1000,7 2 0,0
14.11.2019 13:00:00 6,6 4,7 18 10 36 19 SSE 1000,9 0 0,0
14.11.2019 12:00:00 6,1 4,8 21 12 38 20 SSE 1000,6 0 0,0
14.11.2019 11:00:00 6,1 4,8 22 12 30 16 SE 999,9 0 0,0
14.11.2019 10:00:00 5,8 4,5 15 8 28 15 ESE 999,0 0 0,1
14.11.2019 09:00:00 5,7 4,5 16 8 34 18 ESE 998,5 0 0,3
14.11.2019 08:00:00 6,0 3,9 21 12 39 21 ESE 997,9 0 0,0
14.11.2019 07:00:00 5,6 4,1 18 10 30 16 ESE 997,2 0 0,0
14.11.2019 06:00:00 5,7 4,2 19 11 29 16 E 996,8 0 0,0
14.11.2019 05:00:00 5,0 4,2 15 8 24 13 ESE 997,0 0 0,0
14.11.2019 04:00:00 4,7 4,1 13 7 21 12 ESE 997,5 0 0,0
14.11.2019 03:00:00 4,5 4,2 10 6 18 10 SE 998,0 0 0,0
14.11.2019 02:00:00 4,6 4,5 10 5 21 11 ESE 998,5 0 0,0
14.11.2019 01:00:00 5,0 4,7 14 8 22 12 SE 998,7 0 0,0
14.11.2019 00:00:00 5,3 5,0 14 7 23 12 SE 999,0 0 0,0
13.11.2019 23:00:00 6,2 5,6 14 7 23 12 SSE 999,4 0 0,0
13.11.2019 22:00:00 6,7 5,9 14 8 22 12 SSE 999,9 0 0,0
13.11.2019 21:00:00 6,7 5,2 14 8 26 14 SSE 1000,1 0 0,2
13.11.2019 20:00:00 7,1 5,2 16 8 35 19 S 1000,5 0 0,1
13.11.2019 19:00:00 7,8 6,2 11 6 21 11 S 1000,7 0 0,0
13.11.2019 18:00:00 7,6 5,9 10 5 23 12 S 1000,9 0 0,0
13.11.2019 17:00:00 8,5 5,6 18 10 26 14 SSW 1000,9 17 0,0
13.11.2019 16:00:00 8,3 6,2 12 6 19 10 SSW 1001,0 28 0,0
13.11.2019 15:00:00 8,1 5,6 12 6 23 13 SW 1001,1 27 0,0
13.11.2019 14:00:00 8,0 5,7 16 9 42 23 WSW 1001,2 6 0,9
13.11.2019 13:00:00 8,8 6,8 22 12 31 17 WSW 1001,2 9 0,2
13.11.2019 12:00:00 8,5 7,7 12 7 26 14 SW 1001,2 6 0,4
13.11.2019 11:00:00 8,4 7,4 16 9 31 17 WSW 1001,3 37 0,0
13.11.2019 10:00:00 7,2 6,5 15 8 23 13 SW 1001,1 2 0,0
13.11.2019 09:00:00 6,9 6,6 15 8 22 12 SW 1000,4 13 0,2
13.11.2019 08:00:00 6,4 6,2 13 7 22 12 SW 1000,1 0 0,3
13.11.2019 07:00:00 6,4 6,3 14 8 26 14 SSW 999,7 0 0,0
13.11.2019 06:00:00 5,8 5,8 18 10 31 17 SSW 999,2 0 0,4
13.11.2019 05:00:00 6,0 5,7 21 12 32 17 SSW 998,9 0 0,1
13.11.2019 04:00:00 5,8 5,5 20 11 33 18 SSW 998,6 0 0,0
13.11.2019 03:00:00 5,8 5,3 24 13 34 18 SSW 998,6 0 0,1
13.11.2019 02:00:00 5,3 4,9 24 13 41 22 SSW 998,5 0 0,0
13.11.2019 01:00:00 5,2 4,5 29 16 52 28 SSW 998,4 0 0,1
13.11.2019 00:00:00 5,6 4,4 30 16 47 26 SSW 998,7 0 0,0
12.11.2019 23:00:00 5,7 3,9 28 15 50 27 SSW 998,9 0 0,0
12.11.2019 22:00:00 5,7 3,4 35 19 50 27 SSW 998,8 0 0,0
12.11.2019 21:00:00 5,5 3,6 26 14 40 22 S 998,7 0 0,0
12.11.2019 20:00:00 5,8 3,8 25 14 41 22 S 998,8 0 0,0
12.11.2019 19:00:00 6,0 3,9 29 16 51 28 S 999,1 0 0,0
12.11.2019 18:00:00 6,2 3,7 27 15 51 27 SSW 999,8 0 0,0
12.11.2019 17:00:00 6,8 3,7 34 18 47 25 SSW 999,8 13 0,0
12.11.2019 16:00:00 7,3 4,2 28 15 41 22 S 999,9 45 0,0
12.11.2019 15:00:00 7,4 4,4 27 15 40 22 SSW 999,7 29 0,0
12.11.2019 14:00:00 7,8 4,4 25 14 40 22 SSW 999,8 45 0,0
12.11.2019 13:00:00 6,7 3,8 25 14 35 19 SSW 1000,0 33 0,1
12.11.2019 12:00:00 6,0 4,1 25 13 37 20 SSW 1000,7 43 0,0
12.11.2019 11:00:00 5,5 3,9 20 11 40 21 S 1000,6 33 0,0
12.11.2019 10:00:00 5,0 3,7 21 11 32 18 SSW 1000,7 1 0,1
12.11.2019 09:00:00 4,9 3,6 19 10 40 22 SSW 1000,8 0 0,0
12.11.2019 08:00:00 5,0 3,6 27 14 48 26 SSW 1000,4 0 0,0
12.11.2019 07:00:00 4,7 3,6 25 14 42 23 SSW 1001,0 0 0,0
12.11.2019 06:00:00 4,8 3,6 25 13 48 26 SSW 1001,0 0 0,0
12.11.2019 05:00:00 4,8 3,6 27 14 44 24 SSW 1001,5 0 0,0
12.11.2019 04:00:00 4,8 3,7 25 14 36 20 SSW 1001,6 0 0,0
12.11.2019 03:00:00 5,2 4,0 24 13 41 22 SSW 1001,9 0 0,0
12.11.2019 02:00:00 5,4 4,1 30 16 44 24 SSW 1001,7 0 0,0
12.11.2019 01:00:00 5,5 4,4 22 12 37 20 SSW 1002,1 0 0,0
12.11.2019 00:00:00 5,6 4,3 22 12 36 19 SSW 1002,3 0 0,0
11.11.2019 23:00:00 5,6 4,5 14 7 28 15 S 1002,1 0 0,1
11.11.2019 22:00:00 6,2 4,9 16 9 33 18 SSW 1002,3 0 0,0

tt = Température de l'air
td = dewpoint
ff = Vitesse du vent
fx = gusts
dd = Direction du vent
ppp = reduced air pressure
sd = Ensoleillement
rr = Quantités de précipitations

stations d'obs. à proximité